createdAt,value
2019-02-26T00:01:26.178Z,99.90
2019-02-26T00:03:55.509Z,99.90
2019-02-26T00:06:25.380Z,99.90
2019-02-26T00:08:56.602Z,99.90
2019-02-26T00:11:28.331Z,99.90
2019-02-26T00:13:57.330Z,99.90
2019-02-26T00:16:25.994Z,99.90
2019-02-26T00:18:56.227Z,99.90
2019-02-26T00:21:26.421Z,99.90
2019-02-26T00:23:55.913Z,99.90
2019-02-26T00:26:24.630Z,99.90
2019-02-26T00:28:53.362Z,99.90
2019-02-26T00:31:23.845Z,99.90
2019-02-26T00:33:52.885Z,99.90
2019-02-26T00:36:21.620Z,99.90
2019-02-26T00:38:50.317Z,99.90
2019-02-26T00:41:40.242Z,99.90
2019-02-26T00:44:08.799Z,99.90
2019-02-26T00:46:39.499Z,99.90
2019-02-26T00:49:07.994Z,99.90
2019-02-26T00:51:36.722Z,99.90
2019-02-26T00:54:06.305Z,99.90
2019-02-26T00:56:36.497Z,99.90
2019-02-26T00:59:05.898Z,99.90
2019-02-26T01:01:34.622Z,99.90
2019-02-26T01:04:03.331Z,99.90
2019-02-26T01:06:33.518Z,99.90
2019-02-26T01:09:05.542Z,99.90
2019-02-26T01:11:33.742Z,99.90
2019-02-26T01:14:02.477Z,99.90
2019-02-26T01:16:31.187Z,99.90
2019-02-26T01:18:59.886Z,99.90
2019-02-26T01:21:30.961Z,99.90
2019-02-26T01:24:01.605Z,99.90
2019-02-26T01:26:29.884Z,99.90
2019-02-26T01:29:00.878Z,99.90
2019-02-26T01:31:29.775Z,99.90
2019-02-26T01:33:59.518Z,99.90
2019-02-26T01:36:28.250Z,99.90
2019-02-26T01:38:56.962Z,99.90
2019-02-26T01:41:27.341Z,99.90
2019-02-26T01:43:58.222Z,99.90
2019-02-26T01:46:26.955Z,99.90
2019-02-26T01:48:57.441Z,99.90
2019-02-26T01:51:28.475Z,99.90
2019-02-26T01:53:56.761Z,99.90
2019-02-26T01:56:25.505Z,99.90
2019-02-26T01:58:56.923Z,99.90
2019-02-26T02:01:26.179Z,99.90
2019-02-26T02:03:56.261Z,99.90
2019-02-26T02:06:25.658Z,99.90
2019-02-26T02:08:55.722Z,99.90
2019-02-26T02:11:28.283Z,99.90
2019-02-26T02:13:55.502Z,99.90
2019-02-26T02:16:26.210Z,99.90
2019-02-26T02:18:58.198Z,99.90
2019-02-26T02:21:28.402Z,99.90
2019-02-26T02:23:58.666Z,99.90
2019-02-26T02:26:27.421Z,99.90
2019-02-26T02:28:56.222Z,99.90
2019-02-26T02:31:27.051Z,99.90
2019-02-26T02:33:55.397Z,99.90
2019-02-26T02:36:26.452Z,99.90
2019-02-26T02:38:54.650Z,99.90
2019-02-26T02:41:23.354Z,99.90
2019-02-26T02:43:52.214Z,99.90
2019-02-26T02:46:20.955Z,99.90
2019-02-26T02:48:49.662Z,99.90
2019-02-26T02:51:19.843Z,99.90
2019-02-26T02:53:50.475Z,99.90
2019-02-26T02:56:19.406Z,99.90
2019-02-26T02:58:49.495Z,99.90
2019-02-26T03:01:20.420Z,99.90
2019-02-26T03:03:50.552Z,99.90
2019-02-26T03:06:19.883Z,99.90
2019-02-26T03:08:50.887Z,99.90
2019-02-26T03:11:19.170Z,99.90
2019-02-26T03:13:48.604Z,99.90
2019-02-26T03:16:19.460Z,99.90
2019-02-26T03:18:48.800Z,99.90
2019-02-26T03:21:22.098Z,99.90
2019-02-26T03:23:51.248Z,99.90
2019-02-26T03:26:20.519Z,99.90
2019-02-26T03:28:51.388Z,99.90
2019-02-26T03:31:20.931Z,99.90
2019-02-26T03:33:49.944Z,99.90
2019-02-26T03:36:19.247Z,99.90
2019-02-26T03:38:49.056Z,99.90
2019-02-26T03:41:22.209Z,99.90
2019-02-26T03:43:49.118Z,99.90
2019-02-26T03:46:17.905Z,99.90
2019-02-26T03:48:46.627Z,99.90
2019-02-26T03:51:17.829Z,99.90
2019-02-26T03:53:45.867Z,99.90
2019-02-26T03:56:17.541Z,99.90
2019-02-26T03:58:45.451Z,99.90
2019-02-26T04:01:18.266Z,99.90
2019-02-26T04:03:44.722Z,99.90
2019-02-26T04:06:13.586Z,99.90
2019-02-26T04:08:45.434Z,99.90
2019-02-26T04:11:13.932Z,99.90
2019-02-26T04:13:45.540Z,99.90
2019-02-26T04:16:13.654Z,99.90
2019-02-26T04:18:42.371Z,99.90
2019-02-26T04:21:12.095Z,99.90
2019-02-26T04:23:43.524Z,99.90
2019-02-26T04:26:23.489Z,99.90
2019-02-26T04:29:22.928Z,99.90
2019-02-26T04:32:41.492Z,99.90
2019-02-26T04:35:22.966Z,99.90
2019-02-26T04:38:07.146Z,99.90
2019-02-26T04:41:27.807Z,99.90
2019-02-26T04:44:40.986Z,99.90
2019-02-26T04:47:18.380Z,99.90
2019-02-26T04:49:47.080Z,99.90
2019-02-26T04:52:17.363Z,99.90
2019-02-26T04:54:46.329Z,99.90
2019-02-26T04:57:15.055Z,99.90
2019-02-26T04:59:44.069Z,99.90
2019-02-26T05:02:12.943Z,99.90
2019-02-26T05:04:42.176Z,99.90
2019-02-26T05:07:14.004Z,99.90
2019-02-26T05:09:42.369Z,99.90
2019-02-26T05:12:11.118Z,99.90
2019-02-26T05:14:39.834Z,99.90
2019-02-26T05:17:09.705Z,99.90
2019-02-26T05:19:39.601Z,99.90
2019-02-26T05:22:08.942Z,99.90
2019-02-26T05:24:38.652Z,99.90
2019-02-26T05:27:15.504Z,99.90
2019-02-26T05:29:46.581Z,99.90
2019-02-26T05:32:15.220Z,99.90
2019-02-26T05:34:45.924Z,99.90
2019-02-26T05:37:14.437Z,99.90
2019-02-26T05:39:45.826Z,99.90
2019-02-26T05:42:13.574Z,99.90
2019-02-26T05:44:42.632Z,99.90
2019-02-26T05:47:13.006Z,99.90
2019-02-26T05:49:45.308Z,99.90
2019-02-26T05:52:12.217Z,99.90
2019-02-26T05:54:40.945Z,99.90
2019-02-26T05:57:25.508Z,99.90
2019-02-26T05:59:41.929Z,99.90
2019-02-26T06:02:11.314Z,99.90
2019-02-26T06:04:41.981Z,99.90
2019-02-26T06:07:11.412Z,99.90
2019-02-26T06:09:40.125Z,99.90
2019-02-26T06:12:09.271Z,99.90
2019-02-26T06:14:39.325Z,99.90
2019-02-26T06:17:10.521Z,99.90
2019-02-26T06:19:47.118Z,99.90
2019-02-26T06:22:18.168Z,99.90
2019-02-26T06:24:46.670Z,99.90
2019-02-26T06:27:16.626Z,99.90
2019-02-26T06:29:45.901Z,99.90
2019-02-26T06:32:16.234Z,99.90
2019-02-26T06:34:45.051Z,99.90
2019-02-26T06:37:16.701Z,99.90
2019-02-26T06:39:45.517Z,99.90
2019-02-26T06:42:14.568Z,99.90
2019-02-26T06:44:46.329Z,99.90
2019-02-26T06:47:14.769Z,99.90
2019-02-26T06:49:45.620Z,99.90
2019-02-26T06:52:16.127Z,99.90
2019-02-26T06:54:50.554Z,99.90
2019-02-26T06:57:17.154Z,99.90
2019-02-26T06:59:45.896Z,99.90
2019-02-26T07:02:14.653Z,99.90
2019-02-26T07:04:43.362Z,99.90
2019-02-26T07:07:14.329Z,99.90
2019-02-26T07:09:43.920Z,99.90
2019-02-26T07:12:14.467Z,99.90
2019-02-26T07:14:43.230Z,99.90
2019-02-26T07:17:11.945Z,99.90
2019-02-26T07:19:40.727Z,99.90
2019-02-26T07:22:11.572Z,99.90
2019-02-26T07:24:41.811Z,99.90
2019-02-26T07:27:11.512Z,99.90
2019-02-26T07:29:44.344Z,99.90
2019-02-26T07:32:12.418Z,99.90
2019-02-26T07:34:45.202Z,99.90
2019-02-26T07:37:15.769Z,99.90
2019-02-26T07:39:45.050Z,99.90
2019-02-26T07:42:16.503Z,99.90
2019-02-26T07:44:45.358Z,99.90
2019-02-26T07:47:14.197Z,99.90
2019-02-26T07:49:42.939Z,99.90
2019-02-26T07:52:11.797Z,99.90
2019-02-26T07:54:42.286Z,99.90
2019-02-26T07:57:30.226Z,99.90
2019-02-26T07:59:58.925Z,99.90
2019-02-26T08:02:28.404Z,99.90
2019-02-26T08:04:58.098Z,99.90
2019-02-26T08:07:28.553Z,99.90
2019-02-26T08:09:58.735Z,99.90
2019-02-26T08:12:27.476Z,99.90
2019-02-26T08:14:56.181Z,99.90
2019-02-26T08:17:24.886Z,99.90
2019-02-26T08:19:53.694Z,99.90
2019-02-26T08:22:22.482Z,99.90
2019-02-26T08:24:52.848Z,99.90
2019-02-26T08:27:21.949Z,99.90
2019-02-26T08:29:51.805Z,99.90
2019-02-26T08:32:23.236Z,99.90
2019-02-26T08:34:51.697Z,99.90
2019-02-26T08:37:20.398Z,99.90
2019-02-26T08:39:49.149Z,99.90
2019-02-26T08:42:17.890Z,99.90
2019-02-26T08:44:48.755Z,99.90
2019-02-26T08:47:19.152Z,99.90
2019-02-26T08:49:47.610Z,99.90
2019-02-26T08:52:17.519Z,99.90
2019-02-26T08:54:46.993Z,99.90
2019-02-26T08:57:16.118Z,99.90
2019-02-26T08:59:47.145Z,99.90
2019-02-26T09:02:15.270Z,99.90
2019-02-26T09:04:45.085Z,99.90
2019-02-26T09:07:16.366Z,99.90
2019-02-26T09:09:45.926Z,99.90
2019-02-26T09:12:17.373Z,99.90
2019-02-26T09:14:48.098Z,99.90
2019-02-26T09:17:18.777Z,99.90
2019-02-26T09:19:47.136Z,99.90
2019-02-26T09:22:19.330Z,99.90
2019-02-26T09:24:49.425Z,99.90
2019-02-26T09:27:17.946Z,99.90
2019-02-26T09:29:49.607Z,99.90
2019-02-26T09:32:18.390Z,99.90
2019-02-26T09:34:47.361Z,99.90
2019-02-26T09:37:16.118Z,99.90
2019-02-26T09:39:44.884Z,99.90
2019-02-26T09:42:13.613Z,99.90
2019-02-26T09:44:42.330Z,99.90
2019-02-26T09:47:11.066Z,99.90
2019-02-26T09:49:39.817Z,99.90
2019-02-26T09:52:10.510Z,99.90
2019-02-26T09:54:42.741Z,99.90
2019-02-26T09:57:11.545Z,99.90
2019-02-26T09:59:40.262Z,99.90
2019-02-26T10:02:09.006Z,99.90
2019-02-26T10:04:37.732Z,99.90
2019-02-26T10:07:09.218Z,99.90
2019-02-26T10:09:38.219Z,99.90
2019-02-26T10:12:09.809Z,99.90
2019-02-26T10:14:38.544Z,99.90
2019-02-26T10:17:09.284Z,99.90
2019-02-26T10:19:38.722Z,99.90
2019-02-26T10:22:12.598Z,99.90
2019-02-26T10:24:40.616Z,99.90
2019-02-26T10:27:11.481Z,99.90
2019-02-26T10:29:42.044Z,99.90
2019-02-26T10:32:11.768Z,99.90
2019-02-26T10:34:40.809Z,99.90
2019-02-26T10:37:09.545Z,99.90
2019-02-26T10:39:38.447Z,99.40
2019-02-26T10:42:07.151Z,98.70
2019-02-26T10:44:35.926Z,99.40
2019-02-26T10:47:07.759Z,97.10
2019-02-26T10:49:35.546Z,97.00
2019-02-26T10:52:05.594Z,96.70
2019-02-26T10:54:37.496Z,96.10
2019-02-26T10:57:07.470Z,96.30
2019-02-26T10:59:36.490Z,97.20
2019-02-26T11:02:05.286Z,96.20
2019-02-26T11:04:35.579Z,97.90
2019-02-26T11:07:08.460Z,98.60
2019-02-26T11:09:34.984Z,95.70
2019-02-26T11:12:07.898Z,93.40
2019-02-26T11:14:37.252Z,91.60
2019-02-26T11:17:06.717Z,92.00
2019-02-26T11:19:38.434Z,90.20
2019-02-26T11:22:05.951Z,87.40
2019-02-26T11:24:36.187Z,85.80
2019-02-26T11:27:05.194Z,85.60
2019-02-26T11:29:35.907Z,78.80
2019-02-26T11:32:05.737Z,79.20
2019-02-26T11:34:37.698Z,74.80
2019-02-26T11:37:08.787Z,76.90
2019-02-26T11:39:36.036Z,73.30
2019-02-26T11:42:04.807Z,71.90
2019-02-26T11:44:33.518Z,69.80
2019-02-26T11:47:02.226Z,67.10
2019-02-26T11:49:31.271Z,64.00
2019-02-26T11:52:01.638Z,65.30
2019-02-26T11:54:32.662Z,67.40
2019-02-26T11:57:01.794Z,64.50
2019-02-26T11:59:31.601Z,66.20
2019-02-26T12:02:01.981Z,64.50
2019-02-26T12:04:32.530Z,64.70
2019-02-26T12:07:03.910Z,67.40
2019-02-26T12:09:32.993Z,63.60
2019-02-26T12:12:06.234Z,63.80
2019-02-26T12:14:37.379Z,67.20
2019-02-26T12:17:07.967Z,69.10
2019-02-26T12:19:37.199Z,63.50
2019-02-26T12:22:06.192Z,63.30
2019-02-26T12:24:36.183Z,63.10
2019-02-26T12:27:07.127Z,64.60
2019-02-26T12:29:35.351Z,64.70
2019-02-26T12:32:04.813Z,64.70
2019-02-26T12:34:35.321Z,62.90
2019-02-26T12:37:08.733Z,63.70
2019-02-26T12:39:34.953Z,62.80
2019-02-26T12:42:03.680Z,63.50
2019-02-26T12:44:34.884Z,60.50
2019-02-26T12:47:02.854Z,62.80
2019-02-26T12:49:33.293Z,64.90
2019-02-26T12:52:03.330Z,64.80
2019-02-26T12:54:37.035Z,63.80
2019-02-26T12:57:04.299Z,63.90
2019-02-26T12:59:33.578Z,58.70
2019-02-26T13:02:05.179Z,60.30
2019-02-26T13:04:32.732Z,65.80
2019-02-26T13:07:01.743Z,62.30
2019-02-26T13:09:30.629Z,59.30
2019-02-26T13:12:02.386Z,58.30
2019-02-26T13:14:29.811Z,61.90
2019-02-26T13:17:01.282Z,61.30
2019-02-26T13:19:33.264Z,58.50
2019-02-26T13:22:06.647Z,56.90
2019-02-26T13:24:30.934Z,57.20
2019-02-26T13:27:00.202Z,55.50
2019-02-26T13:29:29.274Z,53.10
2019-02-26T13:31:59.961Z,52.10
2019-02-26T13:34:28.404Z,51.60
2019-02-26T13:36:57.173Z,50.80
2019-02-26T13:39:29.812Z,50.10
2019-02-26T13:42:03.496Z,49.30
2019-02-26T13:44:26.782Z,48.80
2019-02-26T13:46:55.477Z,49.50
2019-02-26T13:49:24.173Z,48.80
2019-02-26T13:51:52.968Z,48.40
2019-02-26T13:54:21.671Z,48.10
2019-02-26T13:56:50.735Z,46.80
2019-02-26T13:59:19.537Z,46.80
2019-02-26T14:01:48.829Z,45.80
2019-02-26T14:04:17.570Z,46.90
2019-02-26T14:06:46.348Z,48.10
2019-02-26T14:09:15.054Z,47.30
2019-02-26T14:11:43.810Z,46.90
2019-02-26T14:14:12.530Z,47.40
2019-02-26T14:16:41.230Z,48.00
2019-02-26T14:19:09.958Z,48.00
2019-02-26T14:21:38.666Z,48.80
2019-02-26T14:24:07.478Z,48.70
2019-02-26T14:26:36.206Z,47.60
2019-02-26T14:29:05.194Z,47.60
2019-02-26T14:31:33.911Z,47.90
2019-02-26T14:34:03.035Z,49.00
2019-02-26T14:36:31.741Z,49.10
2019-02-26T14:39:00.503Z,50.90
2019-02-26T14:41:29.587Z,50.80
2019-02-26T14:43:58.317Z,55.10
2019-02-26T14:46:27.039Z,55.70
2019-02-26T14:48:55.737Z,58.90
2019-02-26T14:51:24.526Z,62.50
2019-02-26T14:53:53.261Z,67.70
2019-02-26T14:56:21.973Z,70.40
2019-02-26T14:58:51.533Z,72.90
2019-02-26T15:01:20.254Z,78.60
2019-02-26T15:03:48.954Z,80.00
2019-02-26T15:06:17.674Z,84.90
2019-02-26T15:08:46.502Z,84.30
2019-02-26T15:11:15.209Z,84.30
2019-02-26T15:13:43.903Z,84.70
2019-02-26T15:16:12.649Z,84.50
2019-02-26T15:18:41.350Z,80.50
2019-02-26T15:21:10.058Z,80.60
2019-02-26T15:23:38.800Z,83.10
2019-02-26T15:26:07.650Z,83.90
2019-02-26T15:28:36.394Z,83.10
2019-02-26T15:31:05.117Z,82.10
2019-02-26T15:33:33.827Z,85.40
2019-02-26T15:36:02.530Z,87.20
2019-02-26T15:38:31.657Z,87.30
2019-02-26T15:41:00.433Z,86.20
2019-02-26T15:43:29.192Z,84.60
2019-02-26T15:45:59.810Z,86.50
2019-02-26T15:48:30.794Z,83.30
2019-02-26T15:50:59.517Z,83.70
2019-02-26T15:53:28.510Z,84.20
2019-02-26T15:55:59.447Z,83.60
2019-02-26T15:58:29.091Z,82.40
2019-02-26T16:00:57.964Z,84.50
2019-02-26T16:03:29.301Z,85.90
2019-02-26T16:05:57.198Z,83.60
2019-02-26T16:08:34.219Z,83.50
2019-02-26T16:10:58.714Z,82.20
2019-02-26T16:13:27.546Z,79.90
2019-02-26T16:15:56.578Z,77.70
2019-02-26T16:18:27.576Z,77.20
2019-02-26T16:20:55.738Z,76.60
2019-02-26T16:23:24.442Z,74.00
2019-02-26T16:25:53.161Z,73.00
2019-02-26T16:28:22.078Z,73.30
2019-02-26T16:30:50.788Z,73.40
2019-02-26T16:33:19.826Z,71.80
2019-02-26T16:35:48.598Z,74.10
2019-02-26T16:38:17.764Z,74.30
2019-02-26T16:40:48.257Z,74.10
2019-02-26T16:43:17.890Z,74.20
2019-02-26T16:45:48.979Z,74.40
2019-02-26T16:48:21.358Z,75.70
2019-02-26T16:50:48.210Z,77.70
2019-02-26T16:53:17.387Z,78.90
2019-02-26T16:55:49.144Z,82.00
2019-02-26T16:58:18.596Z,87.00
2019-02-26T17:00:49.480Z,88.10
2019-02-26T17:03:19.378Z,92.40
2019-02-26T17:05:48.322Z,93.30
2019-02-26T17:08:17.054Z,94.00
2019-02-26T17:10:45.860Z,94.80
2019-02-26T17:13:33.938Z,95.40
2019-02-26T17:16:04.742Z,96.10
2019-02-26T17:18:33.282Z,97.80
2019-02-26T17:21:01.987Z,98.70
2019-02-26T17:23:30.771Z,99.40
2019-02-26T17:26:01.838Z,99.90
2019-02-26T17:28:30.674Z,99.90
2019-02-26T17:31:18.694Z,99.90
2019-02-26T17:33:47.432Z,99.90
2019-02-26T17:36:16.200Z,99.90
2019-02-26T17:38:45.157Z,99.90
2019-02-26T17:41:13.874Z,99.90
2019-02-26T17:43:42.605Z,99.90
2019-02-26T17:46:11.338Z,99.90
2019-02-26T17:48:43.394Z,99.90
2019-02-26T17:51:10.977Z,99.90
2019-02-26T17:53:39.766Z,99.90
2019-02-26T17:56:08.462Z,99.90
2019-02-26T17:58:37.174Z,99.90
2019-02-26T18:01:06.019Z,99.90
2019-02-26T18:03:34.723Z,99.90
2019-02-26T18:06:03.695Z,99.90
2019-02-26T18:08:32.517Z,99.90
2019-02-26T18:11:02.762Z,99.90
2019-02-26T18:13:31.598Z,99.90
2019-02-26T18:16:08.712Z,99.90
2019-02-26T18:18:34.223Z,99.90
2019-02-26T18:21:01.197Z,99.90
2019-02-26T18:23:29.923Z,99.90
2019-02-26T18:26:04.394Z,99.90
2019-02-26T18:28:33.170Z,99.90
2019-02-26T18:31:04.390Z,99.90
2019-02-26T18:33:35.569Z,99.90
2019-02-26T18:36:03.613Z,99.90
2019-02-26T18:38:32.338Z,99.90
2019-02-26T18:41:01.286Z,99.90
2019-02-26T18:43:30.142Z,99.90
2019-02-26T18:46:00.763Z,99.90
2019-02-26T18:48:29.374Z,99.90
2019-02-26T18:50:59.672Z,99.90
2019-02-26T18:53:28.619Z,99.90
2019-02-26T18:55:57.351Z,99.90
2019-02-26T18:58:26.226Z,99.90
2019-02-26T19:00:58.323Z,99.90
2019-02-26T19:03:25.438Z,99.90
2019-02-26T19:05:54.856Z,99.90
2019-02-26T19:08:23.798Z,99.90
2019-02-26T19:10:53.344Z,99.90
2019-02-26T19:13:22.613Z,99.90
2019-02-26T19:15:51.359Z,99.90
2019-02-26T19:18:20.074Z,99.90
2019-02-26T19:20:49.595Z,99.90
2019-02-26T19:23:18.669Z,99.90
2019-02-26T19:25:47.448Z,99.90
2019-02-26T19:28:16.162Z,99.90
2019-02-26T19:30:44.894Z,99.90
2019-02-26T19:33:13.614Z,99.90
2019-02-26T19:35:42.326Z,99.90
2019-02-26T19:38:11.069Z,99.90
2019-02-26T19:40:40.979Z,99.90
2019-02-26T19:43:09.710Z,99.90
2019-02-26T19:45:38.437Z,99.90
2019-02-26T19:48:07.173Z,99.90
2019-02-26T19:50:35.883Z,99.90
2019-02-26T19:53:04.613Z,99.90
2019-02-26T19:55:34.737Z,99.90
2019-02-26T19:58:06.659Z,99.90
2019-02-26T20:00:33.941Z,99.90
2019-02-26T20:03:05.031Z,99.90
2019-02-26T20:05:36.110Z,99.90
2019-02-26T20:08:05.852Z,99.90
2019-02-26T20:10:34.772Z,99.90
2019-02-26T20:13:04.218Z,99.90
2019-02-26T20:15:33.153Z,99.90
2019-02-26T20:18:02.002Z,99.90
2019-02-26T20:20:38.169Z,99.90
2019-02-26T20:23:05.252Z,99.90
2019-02-26T20:25:31.792Z,99.90
2019-02-26T20:28:05.389Z,99.90
2019-02-26T20:30:31.245Z,99.90
2019-02-26T20:33:01.615Z,99.90
2019-02-26T20:35:30.525Z,99.90
2019-02-26T20:37:59.367Z,99.90
2019-02-26T20:40:28.099Z,99.90
2019-02-26T20:42:56.810Z,99.90
2019-02-26T20:45:25.566Z,99.90
2019-02-26T20:47:54.287Z,99.90
2019-02-26T20:50:24.037Z,99.90
2019-02-26T20:52:52.977Z,99.90
2019-02-26T20:55:21.698Z,99.90
2019-02-26T20:57:50.426Z,99.90
2019-02-26T21:00:19.344Z,99.90
2019-02-26T21:02:48.115Z,99.90
2019-02-26T21:05:16.842Z,99.90
2019-02-26T21:07:45.569Z,99.90
2019-02-26T21:10:15.354Z,99.90
2019-02-26T21:12:44.797Z,99.90
2019-02-26T21:15:16.144Z,99.90
2019-02-26T21:17:44.919Z,99.90
2019-02-26T21:20:13.732Z,99.90
2019-02-26T21:22:42.503Z,99.90
2019-02-26T21:25:11.486Z,99.90
2019-02-26T21:27:40.358Z,99.90
2019-02-26T21:30:12.114Z,99.90
2019-02-26T21:32:41.309Z,99.90
2019-02-26T21:35:10.076Z,99.90
2019-02-26T21:37:38.835Z,99.90
2019-02-26T21:40:08.455Z,99.90
2019-02-26T21:42:37.210Z,99.90
2019-02-26T21:45:06.274Z,99.90
2019-02-26T21:47:35.022Z,99.90
2019-02-26T21:50:04.691Z,99.90
2019-02-26T21:52:33.424Z,99.90
2019-02-26T21:55:02.150Z,99.90
2019-02-26T21:57:31.055Z,99.90
2019-02-26T21:59:59.797Z,99.90
2019-02-26T22:02:28.582Z,99.90
2019-02-26T22:04:57.415Z,99.90
2019-02-26T22:07:26.154Z,99.90
2019-02-26T22:09:54.955Z,99.90
2019-02-26T22:12:24.197Z,99.90
2019-02-26T22:14:54.478Z,99.90
2019-02-26T22:17:25.242Z,99.90
2019-02-26T22:19:53.656Z,99.90
2019-02-26T22:22:25.971Z,99.90
2019-02-26T22:24:52.902Z,99.90
2019-02-26T22:27:21.629Z,99.90
2019-02-26T22:29:50.370Z,99.90
2019-02-26T22:32:19.158Z,99.90
2019-02-26T22:34:47.968Z,99.90
2019-02-26T22:37:17.250Z,99.90
2019-02-26T22:39:46.012Z,99.90
2019-02-26T22:42:14.723Z,99.90
2019-02-26T22:44:43.473Z,99.90
2019-02-26T22:47:13.558Z,99.90
2019-02-26T22:49:42.480Z,99.90
2019-02-26T22:52:11.266Z,99.90
2019-02-26T22:54:40.791Z,99.90
2019-02-26T22:57:10.428Z,99.90
2019-02-26T22:59:40.902Z,99.90
2019-02-26T23:02:09.740Z,99.90
2019-02-26T23:04:38.522Z,99.90
2019-02-26T23:07:07.293Z,99.90
2019-02-26T23:09:36.413Z,99.90
2019-02-26T23:12:05.704Z,99.90
2019-02-26T23:14:35.889Z,99.90
2019-02-26T23:17:06.905Z,99.90
2019-02-26T23:19:36.593Z,99.90
2019-02-26T23:22:06.234Z,99.90
2019-02-26T23:24:35.317Z,99.90
2019-02-26T23:27:04.083Z,99.90
2019-02-26T23:29:32.814Z,99.90
2019-02-26T23:32:03.768Z,99.90
2019-02-26T23:34:31.967Z,99.90
2019-02-26T23:37:01.434Z,99.90
2019-02-26T23:39:30.413Z,99.90
2019-02-26T23:41:59.134Z,99.90
2019-02-26T23:44:27.918Z,99.90
2019-02-26T23:46:56.716Z,99.90
2019-02-26T23:49:25.443Z,99.90
2019-02-26T23:51:54.649Z,99.90
2019-02-26T23:54:23.483Z,99.90
2019-02-26T23:56:52.731Z,99.90
2019-02-26T23:59:21.552Z,99.90
